Key West, FL

12:49 EST le 09 février 2016 (GMT -0500)
Big Coppitt Key Gulfside | | Change Station
CLOSE
Current Station
Stations météorologiques personnelles
Location: Key West, FL
Altitude: 31 ft
Stations météo à proximité

Alt. 31 ft 24.60 °N, 81.67 °W | Updated 11 minutes ago

Couvert
Couvert
68.2 ° F
Paraît 68.2 ° F
N
5.8
Vent Variable Vent de Ouest

Aujourd'hui
Haut(e) -- | Bas -- ° F
--% Risque de précip.
Hier
Haut(e) -- | Bas -- ° F
Precip. -- pouce
Pression 30.12 pouce
Visibilité 10.0 Miles terrestres
Nuages Nuageux 3500 ft
Nuageux 6000 ft
Couvert 25000 ft
Point de rosée 52 ° F
Humidité 57%
Précipitations 0.00 pouce
Profondeur de la couche neigeuse Non disponible.
7:04 AM 6:17 PM
Nouvelle lune, 2% visible
METAR KNQX 091653Z 31014KT 10SM BKN035 BKN060 OVC250 21/12 A3012 RMK AO2 SLP197 T02060117 $
Pression 30.12 pouce
Visibilité 10.0 Miles terrestres
Nuages Nuageux 3500 ft
Nuageux 6000 ft
Couvert 25000 ft
Point de rosée 52 ° F
Humidité 57%
Précipitations 0.00 pouce
Profondeur de la couche neigeuse Non disponible.
7:04 AM 6:17 PM
Nouvelle lune, 2% visible
METAR KNQX 091653Z 31014KT 10SM BKN035 BKN060 OVC250 21/12 A3012 RMK AO2 SLP197 T02060117 $

10-Day Weather Forecast

Almanac

Astronomie

Feb. 09, 2016 Lever Coucher
Temps réel
Crépuscule civil
Crépuscule nautique
Crépuscule astronomique
Lune
Durée de lumière visible
Longueur du jour
Tomorrow will be .
, % of the Moon is Illuminated

Extrêmes aujourd'hui

State Highs State Lows

Community

WunderPhotos

Upload Photos

1,891,650 Photos téléchargées !

WunderBlog® & News

Nearby

Qualité de l'air

  Qualité de l'air Indice de la qualité de l'air Polluant
Not available.

Épaisseur de neige

Station Depth Altitude

Activité sismique

Ville Distance Mag. Time & Date
Minimum magnitude displayed is 2.5.

Températures des eaux côtières

Lieu Température

Stations

Stations météo à proximité

Emplacement de la station Température Refroidissement éolien Point de rosée Humidité Vent Precip. Alt. Mise à jour Type
                   

Watches & Warnings

There are currently no watches in effect.